Time;durP1;ratioP1;P1;durP2;ratioP2;P2;SDS_P1;SDS_P2;PMS_P1;PMS_P2;Temp;Humidity;BMP_temperature;BMP_pressure;BME280_temperature;BME280_humidity;BME280_pressure;Samples;Min_cycle;Max_cycle;Signal;HPM_P1;HPM_P2
2021/04/16 00:03:25;;;;;;;10.47;8.50;;;2.60;90.40;;;;;;8283826;28;20463;-72
2021/04/16 00:07:26;;;;;;;12.40;9.23;;;2.60;90.50;;;;;;8293008;28;20442;-72
2021/04/16 00:11:34;;;;;;;11.77;9.67;;;2.60;90.70;;;;;;8288461;28;21006;-72
2021/04/16 00:15:37;;;;;;;11.13;8.70;;;2.60;90.60;;;;;;8287472;28;20937;-72
2021/04/16 00:19:41;;;;;;;12.60;9.20;;;2.60;90.60;;;;;;8303445;28;20247;-73
2021/04/16 00:23:46;;;;;;;12.30;8.43;;;2.70;90.70;;;;;;8289014;28;20474;-72
2021/04/16 00:27:47;;;;;;;19.10;9.60;;;2.70;90.80;;;;;;8279976;28;20452;-72
2021/04/16 00:31:51;;;;;;;14.40;8.80;;;2.80;90.80;;;;;;8289325;28;20272;-72
2021/04/16 00:35:52;;;;;;;15.97;10.13;;;2.90;90.80;;;;;;8284205;28;20475;-72
2021/04/16 00:39:53;;;;;;;12.83;10.00;;;3.00;90.70;;;;;;8291626;28;20242;-71
2021/04/16 00:43:57;;;;;;;12.40;8.60;;;3.10;90.50;;;;;;8292359;28;20540;-72
2021/04/16 00:48:13;;;;;;;12.70;8.37;;;3.20;90.70;;;;;;8278640;28;20471;-72
2021/04/16 00:52:29;;;;;;;10.33;8.47;;;3.20;90.60;;;;;;8295127;28;20555;-73
2021/04/16 00:56:34;;;;;;;9.33;8.27;;;3.20;90.70;;;;;;8281968;28;20540;-72
2021/04/16 01:00:37;;;;;;;14.80;8.57;;;3.20;91.00;;;;;;8293449;28;20447;-72
2021/04/16 01:04:38;;;;;;;18.10;8.80;;;3.30;90.90;;;;;;8294511;28;20628;-72
2021/04/16 01:08:43;;;;;;;9.23;8.00;;;3.20;90.90;;;;;;8299628;28;20454;-72
2021/04/16 01:12:43;;;;;;;12.70;9.87;;;3.20;90.80;;;;;;8289944;28;20478;-71
2021/04/16 01:16:45;;;;;;;14.33;8.23;;;3.20;91.00;;;;;;8294591;28;20254;-72
2021/04/16 01:20:49;;;;;;;11.97;9.10;;;3.10;90.90;;;;;;8285644;28;20190;-72
2021/04/16 01:24:58;;;;;;;14.30;8.03;;;3.20;91.00;;;;;;8289144;28;20456;-72
2021/04/16 01:29:04;;;;;;;11.53;9.43;;;3.20;90.90;;;;;;8283712;28;20833;-72
2021/04/16 01:33:08;;;;;;;12.57;8.73;;;3.20;90.70;;;;;;8281795;28;20454;-72
2021/04/16 01:37:08;;;;;;;13.70;9.30;;;3.20;90.90;;;;;;8286911;28;20448;-72
2021/04/16 01:41:12;;;;;;;9.97;8.03;;;3.30;90.90;;;;;;8289624;28;20262;-72
2021/04/16 01:45:29;;;;;;;18.90;10.00;;;3.20;90.80;;;;;;8297642;28;20654;-72
2021/04/16 01:49:38;;;;;;;11.30;10.00;;;3.20;90.80;;;;;;8292201;28;20487;-72
2021/04/16 01:53:39;;;;;;;11.63;9.77;;;3.10;91.10;;;;;;8295599;28;20914;-72
2021/04/16 01:57:46;;;;;;;15.73;11.53;;;3.10;91.20;;;;;;8287926;28;20463;-72
2021/04/16 02:01:51;;;;;;;13.30;9.33;;;3.00;91.30;;;;;;8289401;28;21428;-72
2021/04/16 02:05:52;;;;;;;16.17;10.27;;;3.00;91.40;;;;;;8289888;28;20805;-73
2021/04/16 02:09:53;;;;;;;16.87;9.60;;;3.00;91.40;;;;;;8286881;28;20542;-73
2021/04/16 02:13:57;;;;;;;12.40;9.67;;;2.90;91.50;;;;;;8285453;28;20603;-73
2021/04/16 02:18:05;;;;;;;16.73;9.90;;;2.80;91.70;;;;;;8279905;28;20515;-73
2021/04/16 02:22:08;;;;;;;13.93;9.20;;;2.80;91.80;;;;;;8289935;28;20451;-73
2021/04/16 02:26:09;;;;;;;15.70;11.00;;;2.90;92.00;;;;;;8290241;28;20523;-73
2021/04/16 02:30:17;;;;;;;17.80;10.17;;;3.00;92.20;;;;;;8270579;28;20437;-71
2021/04/16 02:34:27;;;;;;;16.33;10.83;;;3.10;92.00;;;;;;8297518;28;20218;-72
2021/04/16 02:38:31;;;;;;;29.80;12.30;;;3.20;92.00;;;;;;8281443;28;20443;-72
2021/04/16 02:42:32;;;;;;;15.03;10.07;;;3.40;91.90;;;;;;8292647;28;20435;-72
2021/04/16 02:46:36;;;;;;;17.70;10.87;;;3.50;91.90;;;;;;8275552;28;20769;-72
2021/04/16 02:50:44;;;;;;;14.17;11.30;;;3.60;91.80;;;;;;8279666;28;20528;-72
2021/04/16 02:54:45;;;;;;;14.47;11.50;;;3.70;91.60;;;;;;8285947;28;20468;-73
2021/04/16 02:58:50;;;;;;;13.90;9.90;;;3.80;91.40;;;;;;8288257;28;20196;-72
2021/04/16 03:02:53;;;;;;;14.30;9.80;;;3.90;91.30;;;;;;8283140;28;20458;-72
2021/04/16 03:06:57;;;;;;;13.57;12.13;;;4.00;91.30;;;;;;8301246;28;20449;-72
2021/04/16 03:10:58;;;;;;;25.47;9.70;;;4.00;91.50;;;;;;8286816;28;20523;-72
2021/04/16 03:14:59;;;;;;;13.67;10.83;;;4.00;91.20;;;;;;8289247;28;20469;-72
2021/04/16 03:19:03;;;;;;;15.70;10.50;;;4.10;91.30;;;;;;8269980;28;20616;-73
2021/04/16 03:23:03;;;;;;;18.67;12.30;;;4.20;91.00;;;;;;8292601;28;20490;-73
2021/04/16 03:27:08;;;;;;;13.77;11.63;;;4.20;90.60;;;;;;8297167;28;20430;-72
2021/04/16 03:31:12;;;;;;;15.70;10.33;;;4.30;90.50;;;;;;8280232;28;20922;-74
2021/04/16 03:35:15;;;;;;;14.10;11.30;;;4.30;90.40;;;;;;8285624;28;20482;-73
2021/04/16 03:39:21;;;;;;;14.93;9.80;;;4.40;90.20;;;;;;8295414;28;20438;-72
2021/04/16 03:43:22;;;;;;;18.90;11.43;;;4.40;90.30;;;;;;8297311;28;20442;-73
2021/04/16 03:47:22;;;;;;;21.63;14.37;;;4.40;90.50;;;;;;8290756;28;20799;-73
2021/04/16 03:51:26;;;;;;;16.93;11.90;;;4.40;90.40;;;;;;8299966;28;20664;-72
2021/04/16 03:55:30;;;;;;;22.37;12.90;;;4.50;90.40;;;;;;8297917;28;20207;-73
2021/04/16 03:59:34;;;;;;;15.50;10.67;;;4.50;90.30;;;;;;8309682;28;20506;-73
2021/04/16 04:03:35;;;;;;;16.80;12.43;;;4.60;90.50;;;;;;8300344;28;20441;-72
2021/04/16 04:07:36;;;;;;;16.17;10.70;;;4.60;90.30;;;;;;8292753;28;20458;-73
2021/04/16 04:11:36;;;;;;;13.70;11.50;;;4.70;90.30;;;;;;8275016;28;20453;-71
2021/04/16 04:15:41;;;;;;;24.37;11.87;;;4.70;90.40;;;;;;8286401;28;20252;-73
2021/04/16 04:19:42;;;;;;;21.73;12.77;;;4.70;90.70;;;;;;8289728;28;20446;-72
2021/04/16 04:23:43;;;;;;;15.03;12.27;;;4.70;90.80;;;;;;8297929;28;20503;-72
2021/04/16 04:27:43;;;;;;;17.90;13.30;;;4.70;90.90;;;;;;8287626;28;20191;-72
2021/04/16 04:31:48;;;;;;;24.03;14.07;;;4.60;91.20;;;;;;8293357;28;20195;-72
2021/04/16 04:35:52;;;;;;;19.50;13.33;;;4.50;91.40;;;;;;8299842;28;20227;-72
2021/04/16 04:39:54;;;;;;;24.57;15.10;;;4.50;91.40;;;;;;8278225;28;20545;-72
2021/04/16 04:43:55;;;;;;;26.47;14.77;;;4.50;91.50;;;;;;8288908;28;21001;-74
2021/04/16 04:47:55;;;;;;;15.47;13.00;;;4.50;91.40;;;;;;8294364;28;20929;-72
2021/04/16 04:52:11;;;;;;;18.30;12.33;;;4.50;91.40;;;;;;8289515;28;20191;-72
2021/04/16 04:56:16;;;;;;;19.20;14.60;;;4.50;91.40;;;;;;8287095;28;20483;-72
2021/04/16 05:00:18;;;;;;;17.70;14.20;;;4.60;91.50;;;;;;8291409;28;20462;-72
2021/04/16 05:04:27;;;;;;;20.23;13.30;;;4.70;91.70;;;;;;8292293;28;20494;-74
2021/04/16 05:08:28;;;;;;;30.47;14.73;;;4.70;91.60;;;;;;8290223;28;20476;-74
2021/04/16 05:12:33;;;;;;;16.10;12.63;;;4.80;91.60;;;;;;8286343;28;20458;-74
2021/04/16 05:16:40;;;;;;;15.67;11.93;;;4.80;91.70;;;;;;8283643;28;21034;-73
2021/04/16 05:20:44;;;;;;;17.93;12.17;;;4.90;91.80;;;;;;8297013;28;20452;-72
2021/04/16 05:24:49;;;;;;;12.27;10.70;;;5.00;91.70;;;;;;8286955;28;20451;-72
2021/04/16 05:28:57;;;;;;;16.47;12.47;;;5.10;91.40;;;;;;8284885;28;20482;-72
2021/04/16 05:32:57;;;;;;;21.97;11.93;;;5.20;91.30;;;;;;8278452;28;20552;-72
2021/04/16 05:37:00;;;;;;;25.23;12.93;;;5.40;91.20;;;;;;8282355;28;20483;-73
2021/04/16 05:41:01;;;;;;;17.80;12.73;;;5.60;91.00;;;;;;8293346;28;20221;-73
2021/04/16 05:45:04;;;;;;;11.20;10.10;;;5.80;90.70;;;;;;8286572;28;20475;-74
2021/04/16 05:49:05;;;;;;;12.13;10.50;;;5.90;90.70;;;;;;8282875;28;20500;-72
2021/04/16 05:53:11;;;;;;;15.23;10.73;;;6.00;90.60;;;;;;8280327;28;20915;-72
2021/04/16 05:57:12;;;;;;;19.50;9.90;;;6.10;90.50;;;;;;8275995;28;21069;-72
2021/04/16 06:01:13;;;;;;;16.10;11.90;;;6.40;90.50;;;;;;8284566;28;20960;-72
2021/04/16 06:05:19;;;;;;;14.37;10.17;;;6.70;90.30;;;;;;8281580;28;20247;-73
2021/04/16 06:09:20;;;;;;;16.63;9.20;;;7.00;90.00;;;;;;8277403;28;20224;-72
2021/04/16 06:13:24;;;;;;;13.60;8.40;;;7.30;89.10;;;;;;8263972;28;20455;-73
2021/04/16 06:17:27;;;;;;;8.50;6.80;;;7.60;88.20;;;;;;8281640;28;20497;-73
2021/04/16 06:21:36;;;;;;;11.70;7.67;;;7.80;86.70;;;;;;8281766;28;20444;-72
2021/04/16 06:25:43;;;;;;;8.50;6.53;;;8.00;85.80;;;;;;8284932;28;20557;-73
2021/04/16 06:29:44;;;;;;;7.83;6.70;;;8.30;85.40;;;;;;8271716;28;20930;-72
2021/04/16 06:33:45;;;;;;;11.70;8.13;;;8.50;84.50;;;;;;8284794;28;21264;-73
2021/04/16 06:37:47;;;;;;;10.07;8.60;;;8.80;84.10;;;;;;8257132;28;20294;-73
2021/04/16 06:41:49;;;;;;;10.80;7.87;;;9.00;82.80;;;;;;8277432;28;20217;-73
2021/04/16 06:45:59;;;;;;;18.17;6.93;;;9.10;81.40;;;;;;8278357;28;20455;-73
2021/04/16 06:50:04;;;;;;;10.67;8.97;;;9.20;81.20;;;;;;8276224;28;20458;-72
2021/04/16 06:54:11;;;;;;;19.73;9.23;;;9.40;80.40;;;;;;8287273;28;20467;-72
2021/04/16 06:58:17;;;;;;;19.63;8.03;;;9.50;80.20;;;;;;8283209;28;20461;-73
2021/04/16 07:02:18;;;;;;;24.17;8.53;;;9.60;79.80;;;;;;8272928;28;20475;-73
2021/04/16 07:06:34;;;;;;;10.30;9.30;;;9.80;79.80;;;;;;8279287;28;21295;-72
2021/04/16 07:10:39;;;;;;;12.20;8.37;;;10.00;79.30;;;;;;8309294;28;20470;-73
2021/04/16 07:14:49;;;;;;;14.63;9.63;;;10.00;77.90;;;;;;8289334;28;20474;-73
2021/04/16 07:19:06;;;;;;;11.83;9.40;;;10.00;77.30;;;;;;8286221;28;20451;-73
2021/04/16 07:23:07;;;;;;;11.07;8.70;;;10.00;76.70;;;;;;8279973;28;20450;-73
2021/04/16 07:27:35;;;;;;;11.70;9.50;;;9.90;77.00;;;;;;8272878;28;20479;-74
2021/04/16 07:31:49;;;;;;;14.27;9.27;;;10.00;77.30;;;;;;8286235;28;20446;-74
2021/04/16 07:36:32;;;;;;;11.60;8.30;;;10.10;76.30;;;;;;8284495;28;20478;-75
2021/04/16 07:40:39;;;;;;;9.83;8.70;;;10.10;76.30;;;;;;8272259;28;20637;-74
2021/04/16 07:45:04;;;;;;;11.43;9.67;;;10.40;76.10;;;;;;8267931;28;20486;-74
2021/04/16 07:49:13;;;;;;;13.33;9.00;;;10.70;75.30;;;;;;8262073;28;20542;-75
2021/04/16 07:53:52;;;;;;;16.40;10.00;;;11.10;74.20;;;;;;8288074;28;20488;-74
2021/04/16 07:58:06;;;;;;;12.10;7.90;;;11.40;73.00;;;;;;8275671;28;20483;-75
2021/04/16 08:02:19;;;;;;;12.43;8.40;;;11.90;71.60;;;;;;8285803;28;20453;-74
2021/04/16 08:06:43;;;;;;;11.83;8.03;;;12.20;68.50;;;;;;8288012;28;20939;-75
2021/04/16 08:10:46;;;;;;;7.53;6.43;;;12.40;68.60;;;;;;8283822;28;20477;-74
2021/04/16 08:14:47;;;;;;;8.57;7.70;;;12.70;67.00;;;;;;8289102;28;20990;-75
2021/04/16 08:19:27;;;;;;;9.20;7.50;;;12.90;65.00;;;;;;8291925;28;20441;-75
2021/04/16 08:23:57;;;;;;;9.40;7.10;;;12.80;63.40;;;;;;8292352;28;20455;-75
2021/04/16 08:28:09;;;;;;;10.23;7.33;;;13.00;63.40;;;;;;8295956;28;20438;-78
2021/04/16 08:32:51;;;;;;;6.77;6.07;;;13.40;62.80;;;;;;8288503;28;20471;-75
2021/04/16 08:36:53;;;;;;;6.60;6.00;;;13.80;61.10;;;;;;8285580;28;20494;-75
2021/04/16 08:40:59;;;;;;;14.47;7.13;;;14.00;58.60;;;;;;8284833;28;20458;-76
2021/04/16 08:45:19;;;;;;;10.43;8.37;;;14.20;58.90;;;;;;8289761;28;20437;-75
2021/04/16 08:49:24;;;;;;;6.93;5.67;;;14.30;58.40;;;;;;8288885;28;20536;-75
2021/04/16 08:53:25;;;;;;;6.20;5.47;;;14.30;58.30;;;;;;8280697;28;20528;-75
2021/04/16 08:57:33;;;;;;;5.43;3.53;;;14.20;55.70;;;;;;8275406;28;20461;-75
2021/04/16 09:01:41;;;;;;;3.93;3.63;;;14.40;56.40;;;;;;8279804;28;20252;-74
2021/04/16 09:05:58;;;;;;;3.40;3.10;;;14.70;51.00;;;;;;8280581;28;20991;-76
2021/04/16 09:10:03;;;;;;;3.80;3.10;;;15.10;51.10;;;;;;8286100;28;20576;-75
2021/04/16 09:14:04;;;;;;;7.00;3.43;;;15.60;48.50;;;;;;8274339;28;20483;-75
2021/04/16 09:18:10;;;;;;;5.30;3.47;;;16.30;46.90;;;;;;8286658;28;20478;-75
2021/04/16 09:22:22;;;;;;;4.37;3.67;;;16.50;45.90;;;;;;8287438;28;20202;-75
2021/04/16 09:26:48;;;;;;;4.93;3.80;;;16.10;44.70;;;;;;8294548;28;20453;-76
2021/04/16 09:31:03;;;;;;;17.97;3.30;;;15.60;46.10;;;;;;8284032;28;20445;-75
2021/04/16 09:35:20;;;;;;;7.90;3.97;;;15.10;47.30;;;;;;8283942;28;20481;-76
2021/04/16 09:39:39;;;;;;;4.17;3.80;;;14.90;47.00;;;;;;8288702;28;20563;-75
2021/04/16 09:43:55;;;;;;;5.27;4.03;;;14.90;47.80;;;;;;8283140;28;20447;-75
2021/04/16 09:48:20;;;;;;;7.20;4.10;;;15.10;47.90;;;;;;8282051;28;20565;-75
2021/04/16 09:52:26;;;;;;;6.57;5.57;;;15.40;47.50;;;;;;8276996;28;20446;-75
2021/04/16 09:56:28;;;;;;;6.40;5.20;;;15.60;46.20;;;;;;8285599;28;20466;-74
2021/04/16 10:00:45;;;;;;;8.67;7.00;;;15.50;46.00;;;;;;8280997;28;20456;-75
2021/04/16 10:05:08;;;;;;;5.80;5.00;;;15.10;45.40;;;;;;8288949;28;20469;-76
2021/04/16 10:09:31;;;;;;;12.00;6.00;;;14.70;46.50;;;;;;8292080;28;20598;-75
2021/04/16 10:13:40;;;;;;;5.57;4.73;;;14.50;47.00;;;;;;8282614;28;20497;-77
2021/04/16 10:17:54;;;;;;;5.97;5.37;;;14.40;47.80;;;;;;8271899;28;20513;-76
2021/04/16 10:21:55;;;;;;;10.30;4.93;;;14.40;49.60;;;;;;8276311;28;20444;-73
2021/04/16 11:20:56;;;;;;;6.27;5.53;;;14.60;49.70;;;;;;8287137;28;20478;-76
2021/04/16 12:42:00;;;;;;;7.53;6.80;;;15.40;49.00;;;;;;8296691;28;20452;-74
2021/04/16 12:46:15;;;;;;;5.57;5.07;;;15.10;49.90;;;;;;8290968;28;20451;-74
2021/04/16 12:50:27;;;;;;;5.10;4.60;;;15.10;48.70;;;;;;8297997;28;20634;-75
2021/04/16 12:54:37;;;;;;;5.50;4.10;;;14.80;46.40;;;;;;8288828;28;20487;-75
2021/04/16 12:58:44;;;;;;;5.07;4.60;;;14.60;46.30;;;;;;8292258;28;20460;-74
2021/04/16 13:03:13;;;;;;;7.57;4.50;;;14.40;46.50;;;;;;8307175;28;20448;-75
2021/04/16 13:07:20;;;;;;;9.27;4.30;;;14.40;46.90;;;;;;8303793;28;20455;-76
2021/04/16 13:11:27;;;;;;;4.80;4.20;;;14.50;46.30;;;;;;8298382;28;20478;-75
2021/04/16 13:15:29;;;;;;;4.37;2.93;;;14.80;44.70;;;;;;8296930;28;20989;-75
2021/04/16 13:19:43;;;;;;;4.50;4.10;;;15.10;44.90;;;;;;8302980;28;20451;-74
2021/04/16 13:23:49;;;;;;;5.30;4.80;;;15.50;44.50;;;;;;8293960;28;20464;-75
2021/04/16 13:27:54;;;;;;;6.63;4.63;;;15.90;43.50;;;;;;8295338;28;20450;-74
2021/04/16 13:32:00;;;;;;;5.00;4.50;;;16.10;43.30;;;;;;8302314;28;20457;-74
2021/04/16 13:36:01;;;;;;;4.10;3.47;;;16.00;42.30;;;;;;8278507;28;20488;-73
2021/04/16 13:40:05;;;;;;;8.90;4.90;;;15.90;42.30;;;;;;8289352;28;20448;-75
2021/04/16 13:44:10;;;;;;;9.47;7.60;;;15.70;42.90;;;;;;8290578;28;20193;-74
2021/04/16 13:48:17;;;;;;;14.23;8.63;;;15.50;43.80;;;;;;8296762;28;20521;-73
2021/04/16 13:52:20;;;;;;;7.87;5.20;;;15.40;43.40;;;;;;8295613;28;20467;-75
2021/04/16 13:56:21;;;;;;;6.53;4.10;;;15.30;44.00;;;;;;8305396;28;20471;-74
2021/04/16 14:00:29;;;;;;;4.30;3.90;;;15.20;43.90;;;;;;8292120;28;20814;-74
2021/04/16 14:04:47;;;;;;;5.60;3.80;;;15.10;42.90;;;;;;8298862;28;20434;-75
2021/04/16 14:08:59;;;;;;;4.90;3.50;;;15.00;43.10;;;;;;8288942;28;20486;-75
2021/04/16 14:13:00;;;;;;;6.07;4.30;;;14.90;43.40;;;;;;8292706;28;20454;-74
2021/04/16 14:17:10;;;;;;;7.40;5.23;;;14.90;44.10;;;;;;8297504;28;20463;-75
2021/04/16 14:21:14;;;;;;;15.23;8.80;;;15.10;43.90;;;;;;8294367;28;20793;-75
2021/04/16 14:25:36;;;;;;;7.43;4.53;;;15.20;43.00;;;;;;8296719;28;20452;-74
2021/04/16 14:29:42;;;;;;;9.37;4.23;;;15.30;42.60;;;;;;8295068;28;20502;-75
2021/04/16 14:33:44;;;;;;;7.00;4.40;;;15.40;41.80;;;;;;8300729;28;20469;-75
2021/04/16 14:37:47;;;;;;;6.33;4.17;;;15.40;42.20;;;;;;8292823;28;21034;-74
2021/04/16 14:41:48;;;;;;;8.07;3.77;;;15.60;42.80;;;;;;8295146;28;20454;-74
2021/04/16 14:45:55;;;;;;;3.83;3.30;;;15.80;41.20;;;;;;8293636;28;20449;-75
2021/04/16 14:49:57;;;;;;;4.50;3.73;;;15.80;41.10;;;;;;8273313;28;20201;-76
2021/04/16 14:54:28;;;;;;;3.40;3.20;;;15.70;40.00;;;;;;8278421;28;20488;-75
2021/04/16 14:58:44;;;;;;;3.83;3.33;;;15.70;40.40;;;;;;8276768;28;20944;-75
2021/04/16 15:02:45;;;;;;;10.57;4.30;;;15.70;41.60;;;;;;8281048;28;20456;-74
2021/04/16 15:06:49;;;;;;;6.10;3.57;;;15.80;40.50;;;;;;8294043;28;20459;-74
2021/04/16 15:11:04;;;;;;;2.87;2.60;;;16.00;42.30;;;;;;8289586;28;20213;-74
2021/04/16 15:15:06;;;;;;;2.97;2.77;;;16.10;41.80;;;;;;8303345;28;20470;-74
2021/04/16 15:19:08;;;;;;;3.00;2.03;;;16.20;41.00;;;;;;8302349;28;20459;-74
2021/04/16 15:23:12;;;;;;;3.80;3.40;;;16.10;39.80;;;;;;8301701;28;20447;-75
2021/04/16 15:27:22;;;;;;;2.60;2.40;;;15.90;40.30;;;;;;8300055;28;20455;-77
2021/04/16 15:31:29;;;;;;;7.33;2.67;;;15.60;39.40;;;;;;8283979;28;20467;-77
2021/04/16 15:48:37;;;;;;;3.63;2.83;;;15.20;41.40;;;;;;8310331;28;20442;-75
2021/04/16 15:52:42;;;;;;;3.20;2.90;;;15.10;39.80;;;;;;8293599;28;21049;-77
2021/04/16 15:56:47;;;;;;;4.97;2.93;;;15.00;40.40;;;;;;8288820;28;20467;-75
2021/04/16 16:00:51;;;;;;;3.73;3.33;;;14.80;40.00;;;;;;8305977;28;21099;-76
2021/04/16 16:04:54;;;;;;;10.63;3.43;;;14.60;41.50;;;;;;8311507;28;20470;-74
2021/04/16 16:08:58;;;;;;;4.43;4.00;;;14.50;42.50;;;;;;8299574;28;20481;-73
2021/04/16 16:13:07;;;;;;;5.00;3.77;;;14.60;43.90;;;;;;8281966;28;20454;-74
2021/04/16 16:17:17;;;;;;;7.67;4.43;;;14.60;43.40;;;;;;8294513;28;20812;-75
2021/04/16 16:21:18;;;;;;;4.50;4.00;;;14.50;43.90;;;;;;8299987;28;20442;-77
2021/04/16 16:25:19;;;;;;;5.60;4.90;;;14.40;44.00;;;;;;8293389;28;20682;-75
2021/04/16 16:29:37;;;;;;;3.83;3.53;;;14.30;43.40;;;;;;8293654;28;20511;-74
2021/04/16 16:33:40;;;;;;;5.60;5.10;;;14.20;43.70;;;;;;8294040;28;20454;-74
2021/04/16 16:37:41;;;;;;;4.63;4.23;;;14.00;43.40;;;;;;8293330;28;20458;-75
2021/04/16 16:41:50;;;;;;;4.97;4.43;;;13.90;43.60;;;;;;8291186;28;20818;-75
2021/04/16 16:46:02;;;;;;;8.23;4.80;;;13.90;44.20;;;;;;8294902;28;20450;-75
2021/04/16 16:50:08;;;;;;;5.00;4.47;;;13.80;44.50;;;;;;8299259;28;20457;-76
2021/04/16 16:54:10;;;;;;;5.73;4.33;;;13.80;46.10;;;;;;8301072;28;20476;-75
2021/04/16 16:58:19;;;;;;;5.10;4.70;;;13.80;45.90;;;;;;8292718;28;20435;-75
2021/04/16 17:02:21;;;;;;;7.03;5.77;;;13.80;46.20;;;;;;8278992;28;21139;-74
2021/04/16 17:06:34;;;;;;;8.53;6.20;;;13.80;45.70;;;;;;8296588;28;20440;-75
2021/04/16 17:10:41;;;;;;;8.63;4.60;;;13.80;45.00;;;;;;8279704;28;20498;-76
2021/04/16 17:14:47;;;;;;;6.13;4.70;;;13.70;46.00;;;;;;8287308;28;20908;-73
2021/04/16 17:18:50;;;;;;;9.13;6.00;;;13.60;46.10;;;;;;8292730;28;20879;-73
2021/04/16 17:22:56;;;;;;;9.33;5.47;;;13.60;46.90;;;;;;8285406;28;20447;-74
2021/04/16 17:27:05;;;;;;;6.10;5.60;;;13.60;48.10;;;;;;8286140;28;20452;-75
2021/04/16 17:31:10;;;;;;;7.67;5.53;;;13.50;49.00;;;;;;8277117;28;20447;-74
2021/04/16 17:35:16;;;;;;;6.17;5.00;;;13.50;50.00;;;;;;8287105;28;20482;-73
2021/04/16 17:39:20;;;;;;;5.70;5.20;;;13.40;50.90;;;;;;8268169;28;20535;-74
2021/04/16 17:43:41;;;;;;;6.40;5.40;;;13.20;50.50;;;;;;8285504;28;20991;-74
2021/04/16 17:47:48;;;;;;;5.90;5.40;;;13.10;50.70;;;;;;8276383;28;20452;-75
2021/04/16 17:52:00;;;;;;;5.27;4.80;;;13.00;51.20;;;;;;8280873;28;20439;-75
2021/04/16 17:56:01;;;;;;;6.50;5.87;;;12.90;51.90;;;;;;8273477;28;20471;-74
2021/04/16 18:00:06;;;;;;;5.67;5.17;;;12.80;52.30;;;;;;8268475;28;20452;-73
2021/04/16 18:04:12;;;;;;;6.90;5.00;;;12.70;55.30;;;;;;8291970;28;20448;-73
2021/04/16 18:08:13;;;;;;;5.27;4.87;;;12.60;56.20;;;;;;8290866;28;20983;-73
2021/04/16 18:12:15;;;;;;;4.77;4.30;;;12.50;57.00;;;;;;8281118;28;20515;-73
2021/04/16 18:16:20;;;;;;;9.70;8.90;;;12.40;57.50;;;;;;8286693;28;20472;-73
2021/04/16 18:20:25;;;;;;;9.40;7.40;;;12.40;57.50;;;;;;8287467;28;20435;-73
2021/04/16 18:24:37;;;;;;;6.27;5.77;;;12.30;58.30;;;;;;8275894;28;20456;-72
2021/04/16 18:28:38;;;;;;;9.53;5.60;;;12.20;59.60;;;;;;8278312;28;20448;-72
2021/04/16 18:32:45;;;;;;;7.77;5.50;;;12.00;60.40;;;;;;8279029;28;21029;-72
2021/04/16 18:36:46;;;;;;;5.77;5.30;;;11.90;59.90;;;;;;8283178;28;20558;-73
2021/04/16 18:40:51;;;;;;;10.17;5.90;;;11.90;59.90;;;;;;8289157;28;20480;-72
2021/04/16 18:45:02;;;;;;;5.60;5.20;;;11.80;60.70;;;;;;8268915;28;21030;-73
2021/04/16 18:49:04;;;;;;;7.65;5.32;;;11.60;61.90;;;;;;8263533;28;20497;-72
2021/04/16 18:53:39;;;;;;;7.40;5.20;;;11.60;61.80;;;;;;8283525;28;20201;-71
2021/04/16 18:57:41;;;;;;;7.03;6.23;;;11.50;59.30;;;;;;8284315;28;20447;-72
2021/04/16 19:01:49;;;;;;;17.80;10.37;;;11.40;60.70;;;;;;8285002;28;20532;-73
2021/04/16 19:05:53;;;;;;;11.60;9.50;;;11.30;60.40;;;;;;8294677;28;20469;-73
2021/04/16 19:10:09;;;;;;;14.80;10.10;;;11.20;60.90;;;;;;8284427;28;20475;-72
2021/04/16 19:14:10;;;;;;;11.97;9.90;;;11.10;61.10;;;;;;8284176;28;20540;-72
2021/04/16 19:18:15;;;;;;;16.60;10.77;;;11.00;61.70;;;;;;8289745;28;20454;-73
2021/04/16 19:22:31;;;;;;;13.83;9.77;;;11.00;61.50;;;;;;8287533;28;20448;-74
2021/04/16 19:26:33;;;;;;;18.13;11.37;;;10.90;61.90;;;;;;8297579;28;20530;-74
2021/04/16 19:30:39;;;;;;;18.80;11.50;;;10.80;61.50;;;;;;8297317;28;20507;-74
2021/04/16 19:34:41;;;;;;;12.30;10.53;;;10.80;63.20;;;;;;8296574;28;20994;-74
2021/04/16 19:38:43;;;;;;;19.97;11.83;;;10.70;64.40;;;;;;8295173;28;20757;-74
2021/04/16 19:42:45;;;;;;;12.90;10.77;;;10.60;65.50;;;;;;8289507;28;20443;-73
2021/04/16 19:46:46;;;;;;;16.10;12.23;;;10.50;68.60;;;;;;8297869;28;20447;-74
2021/04/16 20:21:10;;;;;;;18.03;11.97;;;9.70;70.00;;;;;;8291949;28;20522;-75
2021/04/16 20:25:23;;;;;;;16.83;11.70;;;9.50;72.40;;;;;;8293850;28;20535;-76
2021/04/16 20:29:30;;;;;;;15.80;12.10;;;9.30;72.60;;;;;;8301678;28;20450;-74
2021/04/16 20:33:35;;;;;;;18.50;12.17;;;9.20;72.70;;;;;;8291058;28;20507;-73
2021/04/16 20:37:48;;;;;;;15.60;12.80;;;9.00;73.70;;;;;;8295819;28;20495;-74
2021/04/16 20:41:52;;;;;;;15.97;13.20;;;8.90;74.90;;;;;;8271995;28;20449;-75
2021/04/16 20:45:58;;;;;;;22.00;15.63;;;8.70;77.90;;;;;;8287281;28;20464;-74
2021/04/16 20:50:07;;;;;;;18.83;13.63;;;8.50;78.30;;;;;;8290271;28;20508;-75
2021/04/16 20:54:22;;;;;;;16.60;13.17;;;8.30;78.30;;;;;;8286847;28;21300;-73
2021/04/16 20:58:35;;;;;;;25.47;15.80;;;8.20;79.20;;;;;;8296804;28;21104;-75
2021/04/16 21:03:01;;;;;;;22.40;14.50;;;8.00;80.00;;;;;;8271897;28;20447;-74
2021/04/16 21:07:16;;;;;;;13.40;11.93;;;7.80;80.60;;;;;;8284497;28;20936;-74
2021/04/16 21:11:43;;;;;;;18.50;16.43;;;7.60;81.50;;;;;;8293228;28;20494;-74
2021/04/16 21:15:52;;;;;;;18.47;15.57;;;7.50;82.60;;;;;;8287124;28;20539;-73
2021/04/16 21:19:55;;;;;;;21.03;13.60;;;7.30;83.00;;;;;;8289513;28;20458;-74
2021/04/16 21:24:08;;;;;;;21.90;17.37;;;7.20;83.80;;;;;;8296096;28;20566;-74
2021/04/16 21:28:10;;;;;;;20.97;14.57;;;7.10;84.70;;;;;;8289395;28;20451;-74
2021/04/16 21:32:24;;;;;;;20.33;14.43;;;7.00;85.30;;;;;;8268489;28;20487;-74
2021/04/16 21:36:31;;;;;;;30.80;16.10;;;6.90;85.90;;;;;;8293971;28;20477;-73
2021/04/16 21:40:52;;;;;;;24.30;15.57;;;6.90;85.60;;;;;;8295009;28;20444;-75
2021/04/16 21:45:04;;;;;;;22.30;15.03;;;6.90;86.00;;;;;;8281417;28;20486;-74
2021/04/16 21:49:32;;;;;;;23.27;15.47;;;7.00;86.20;;;;;;8290711;28;20448;-76
2021/04/16 21:53:35;;;;;;;23.60;15.63;;;7.00;86.70;;;;;;8297085;28;20475;-74
2021/04/16 21:57:40;;;;;;;18.03;13.20;;;7.10;86.60;;;;;;8293418;28;20983;-75
2021/04/16 22:01:50;;;;;;;16.50;12.77;;;7.10;86.20;;;;;;8291327;28;20976;-75
2021/04/16 22:05:58;;;;;;;18.37;12.77;;;7.10;85.90;;;;;;8287680;28;21081;-74
2021/04/16 22:10:11;;;;;;;20.83;13.80;;;7.00;85.70;;;;;;8287411;28;20476;-74
2021/04/16 22:14:25;;;;;;;21.47;13.70;;;7.00;86.00;;;;;;8280185;28;21045;-74
2021/04/16 22:18:33;;;;;;;25.77;16.13;;;6.90;86.00;;;;;;8290283;28;20447;-74
2021/04/16 22:22:41;;;;;;;18.97;15.20;;;6.80;87.60;;;;;;8290069;28;20450;-74
2021/04/16 22:26:42;;;;;;;18.57;12.93;;;6.70;87.30;;;;;;8285645;28;20444;-74
2021/04/16 22:30:46;;;;;;;19.10;14.60;;;6.70;88.10;;;;;;8288609;28;20450;-75
2021/04/16 22:34:47;;;;;;;26.00;16.00;;;6.70;87.50;;;;;;8295419;28;20912;-74
2021/04/16 22:38:51;;;;;;;19.97;15.47;;;6.70;87.50;;;;;;8287959;28;21133;-74
2021/04/16 22:42:53;;;;;;;16.20;12.70;;;6.60;87.80;;;;;;8266809;28;20546;-75
2021/04/16 22:47:07;;;;;;;17.90;13.80;;;6.70;87.90;;;;;;8283971;28;20454;-74
2021/04/16 22:51:11;;;;;;;21.50;13.83;;;6.70;87.50;;;;;;8286482;28;20728;-75
2021/04/16 22:55:24;;;;;;;18.20;12.80;;;6.80;87.40;;;;;;8292890;28;20824;-74
2021/04/16 22:59:25;;;;;;;12.90;11.60;;;6.90;87.90;;;;;;8283306;28;20448;-73
2021/04/16 23:03:35;;;;;;;15.43;11.60;;;6.90;87.90;;;;;;8290646;28;20443;-74
2021/04/16 23:07:37;;;;;;;18.57;13.90;;;7.00;87.60;;;;;;8289998;28;20208;-72
2021/04/16 23:11:53;;;;;;;15.90;12.00;;;7.10;87.50;;;;;;8291831;28;20964;-73
2021/04/16 23:15:58;;;;;;;13.80;11.80;;;7.20;86.90;;;;;;8285675;28;20471;-74
2021/04/16 23:20:03;;;;;;;24.60;12.63;;;7.20;87.10;;;;;;8280656;28;20459;-75
2021/04/16 23:24:37;;;;;;;14.50;12.40;;;7.30;86.30;;;;;;8285424;28;20482;-74
2021/04/16 23:28:37;;;;;;;14.40;10.93;;;7.30;86.10;;;;;;8283211;28;20447;-75
2021/04/16 23:32:39;;;;;;;16.17;10.87;;;7.40;85.70;;;;;;8292697;28;20470;-75
2021/04/16 23:36:54;;;;;;;21.03;13.03;;;7.40;85.30;;;;;;8289169;28;20216;-74
2021/04/16 23:40:57;;;;;;;17.00;11.40;;;7.40;85.30;;;;;;8292053;28;20447;-74
2021/04/16 23:45:10;;;;;;;19.03;12.63;;;7.30;85.20;;;;;;8281869;28;20455;-73
2021/04/16 23:49:42;;;;;;;13.00;10.10;;;7.40;85.10;;;;;;8291049;28;20449;-73
2021/04/16 23:53:44;;;;;;;14.43;10.40;;;7.30;85.30;;;;;;8301697;28;21025;-72
2021/04/16 23:58:14;;;;;;;;;;;;;;;;;;;;;
